Hovedside
METAR-TAF:

METAR-TAF

Lufthavner :

Banjul internasjonale lufthavn

Banjul, Gambia

breddegrad: 13-21N, lengdegrad: 016-48W, høyde over havet: 36 m

Gjeldene værobservasjon

Denne rapporten ble laget for 14 minutter siden, klokken 05:00 UTC
Vind 5 kt fra Vest
Temperatur 23°C
Luftfuktighet 100%
Trykk 1008 hPa
Sikt: 9000 m

METAR: GBYD 190500Z 26005KT 9000 NSC 23/23 Q1008

Tid: 05:14 (05:14 UTC)

Varsel

Denne rapporten ble laget for 5 timer og 54 minutter siden, klokken 23:20 UTC
Varsel gyldig fra 19. klokken 00 UTC til 20. klokken 06 UTC
Vind 6 kt fra Vest-sørvest
Sikt 10 km eller mer
Spredte skyer i en høyde av 1200 ft

TAF: GBYD 182320Z 1900/2006 25006KT 9999 SCT012

Værobservasjoner og værvarsel for over 4000 flyplasser (METAR- og TAF-rapporter).

Tilgjengelige stasjoner er representert av de røde og gule prikkene på kartet.

Hold musepekeren over prikken for å se navnet på stasjonen.

Klikk så for å se værobservasjoner og -varsler.

For å forandre kartet kan du klikke på den grønne knappen med svart kryss for å zoome inn, på den grønne knappen med strek for å zoome ut, eller på de grønne pilene for å se tilstøtende kart.


METAR-TAF: